Terminal Aerodrome Forecast
Issued by NWS

Home | Current Version | Previous Version | Graphics & Text | Print | Product List | Glossary Off
Versions: 1 2 3 4 5 6 7 8 9 10 11 12 13

000
FTUS43 KDDC 030520
TAFHYS
TAF
KHYS 030520Z 0306/0406 20005KT P6SM BKN100
     FM030900 35006KT P6SM OVC090
     FM031500 34009G18KT P6SM SCT080
     FM040000 34007KT P6SM SKC=

USA.gov is the U.S. government's official web portal to all federal, state and local government web resources and services.